createdAt,value
2022-12-17T00:57:43.944Z,101547.44
2022-12-17T01:00:42.425Z,101531.25
2022-12-17T01:03:37.363Z,101524.22
2022-12-17T01:06:26.201Z,101526.88
2022-12-17T01:09:16.433Z,101528.91
2022-12-17T01:12:10.172Z,101535.09
2022-12-17T01:15:01.344Z,101540.44
2022-12-17T01:17:48.858Z,101539.06
2022-12-17T01:20:40.710Z,101527.41
2022-12-17T01:23:30.100Z,101525.69
2022-12-17T01:26:18.431Z,101522.31
2022-12-17T01:29:07.698Z,101526.28
2022-12-17T01:31:57.213Z,101520.09
2022-12-17T01:34:46.348Z,101517.28
2022-12-17T01:37:35.294Z,101517.28
2022-12-17T01:40:25.940Z,101509.38
2022-12-17T01:43:19.349Z,101504.03
2022-12-17T01:46:13.307Z,101504.47
2022-12-17T01:49:07.423Z,101496.16
2022-12-17T01:51:57.378Z,101505.88
2022-12-17T01:54:45.054Z,101491.25
2022-12-17T01:57:34.111Z,101475.03
2022-12-17T02:00:38.073Z,101483.22
2022-12-17T02:03:37.497Z,101474.78
2022-12-17T02:10:07.384Z,101461.41
2022-12-17T02:13:10.119Z,101468.44
2022-12-17T02:16:12.624Z,101471.78
2022-12-17T02:19:20.073Z,101466.88
2022-12-17T02:22:15.217Z,101452.91
2022-12-17T02:25:18.570Z,101459.66
2022-12-17T02:28:09.533Z,101470.94
2022-12-17T02:31:00.641Z,101461.06
2022-12-17T02:33:52.942Z,101446.88
2022-12-17T02:36:41.869Z,101434.16
2022-12-17T02:39:30.141Z,101439.69
2022-12-17T02:42:19.561Z,101427.66
2022-12-17T02:45:09.371Z,101427.66
2022-12-17T02:48:00.449Z,101422.88
2022-12-17T02:54:01.069Z,101420.03
2022-12-17T02:56:53.099Z,101429.63
2022-12-17T03:00:06.381Z,101430.00
2022-12-17T03:02:54.286Z,101426.19
2022-12-17T03:05:46.789Z,101421.69
2022-12-17T03:08:35.080Z,101428.44
2022-12-17T03:15:02.200Z,101437.25
2022-12-17T03:17:56.823Z,101439.22
2022-12-17T03:20:45.210Z,101450.34
2022-12-17T03:23:34.414Z,101458.34
2022-12-17T03:26:23.067Z,101447.38
2022-12-17T03:29:11.133Z,101447.34
2022-12-17T03:32:00.396Z,101457.03
2022-12-17T03:34:49.066Z,101460.53
2022-12-17T03:37:56.134Z,101467.06
2022-12-17T03:40:43.472Z,101475.25
2022-12-17T03:43:31.624Z,101470.41
2022-12-17T03:46:18.151Z,101461.09
2022-12-17T03:49:06.766Z,101453.66
2022-12-17T03:51:55.086Z,101461.22
2022-12-17T03:54:43.802Z,101463.13
2022-12-17T03:57:32.057Z,101469.47
2022-12-17T04:00:19.915Z,101470.81
2022-12-17T04:03:07.177Z,101462.75
2022-12-17T04:05:56.079Z,101464.97
2022-12-17T04:08:45.528Z,101466.16
2022-12-17T04:11:33.057Z,101461.03
2022-12-17T04:14:21.228Z,101447.56
2022-12-17T04:17:09.752Z,101450.66
2022-12-17T04:19:57.158Z,101452.38
2022-12-17T04:22:45.729Z,101451.50
2022-12-17T04:25:34.021Z,101455.38
2022-12-17T04:28:22.229Z,101463.50
2022-12-17T04:31:10.156Z,101467.94
2022-12-17T04:33:59.462Z,101462.31
2022-12-17T04:36:48.124Z,101477.50
2022-12-17T04:39:36.698Z,101476.50
2022-12-17T04:42:35.045Z,101484.06
2022-12-17T04:45:29.833Z,101478.59
2022-12-17T04:48:22.059Z,101478.38
2022-12-17T04:51:11.440Z,101485.00
2022-12-17T04:53:59.079Z,101487.41
2022-12-17T04:56:46.942Z,101490.16
2022-12-17T04:59:34.086Z,101481.94
2022-12-17T05:02:22.114Z,101476.84
2022-12-17T05:05:09.129Z,101482.75
2022-12-17T05:07:59.092Z,101474.59
2022-12-17T05:10:46.030Z,101490.63
2022-12-17T05:13:44.229Z,101493.59
2022-12-17T05:16:34.152Z,101492.97
2022-12-17T05:19:21.922Z,101501.16
2022-12-17T05:22:10.128Z,101510.06
2022-12-17T05:24:58.388Z,101499.59
2022-12-17T05:27:54.001Z,101504.38
2022-12-17T05:30:44.009Z,101493.72
2022-12-17T05:33:33.170Z,101497.94
2022-12-17T05:40:42.581Z,101487.31
2022-12-17T05:43:45.071Z,101483.88
2022-12-17T05:46:33.418Z,101492.28
2022-12-17T05:49:22.247Z,101505.53
2022-12-17T05:52:16.092Z,101500.81
2022-12-17T05:55:06.893Z,101512.78
2022-12-17T05:57:56.712Z,101510.34
2022-12-17T06:00:44.315Z,101514.34
2022-12-17T06:03:32.090Z,101508.06
2022-12-17T06:15:30.733Z,101518.09
2022-12-17T06:18:17.594Z,101523.22
2022-12-17T06:21:07.446Z,101529.00
2022-12-17T06:23:57.972Z,101538.44
2022-12-17T06:26:47.012Z,101537.69
2022-12-17T06:29:39.360Z,101541.59
2022-12-17T06:32:29.079Z,101531.81
2022-12-17T06:35:22.307Z,101531.06
2022-12-17T06:38:19.357Z,101527.16
2022-12-17T06:41:08.349Z,101526.25
2022-12-17T06:50:29.243Z,101514.94
2022-12-17T06:53:25.495Z,101510.78
2022-12-17T06:56:16.300Z,101505.44
2022-12-17T06:59:06.402Z,101509.28
2022-12-17T07:02:02.865Z,101509.97
2022-12-17T07:04:56.962Z,101508.59
2022-12-17T07:07:48.935Z,101521.63
2022-12-17T07:10:43.233Z,101516.44
2022-12-17T07:13:37.879Z,101508.72
2022-12-17T07:16:27.825Z,101510.06
2022-12-17T07:19:20.445Z,101509.38
2022-12-17T07:25:27.994Z,101527.16
2022-12-17T07:28:18.720Z,101514.66
2022-12-17T07:58:27.528Z,101482.84
2022-12-17T08:01:22.600Z,101484.31
2022-12-17T08:04:16.486Z,101484.47
2022-12-17T08:07:10.135Z,101477.84
2022-12-17T08:10:05.252Z,101487.59
2022-12-17T08:12:54.041Z,101487.06
2022-12-17T08:16:23.384Z,101488.09
2022-12-17T08:19:21.653Z,101489.84
2022-12-17T08:22:22.558Z,101479.47
2022-12-17T08:25:15.323Z,101481.84
2022-12-17T08:28:49.427Z,101479.88
2022-12-17T08:31:28.521Z,101478.84
2022-12-17T08:34:22.715Z,101475.19
2022-12-17T08:37:29.363Z,101478.25
2022-12-17T08:40:22.113Z,101477.75
2022-12-17T08:43:19.468Z,101476.63
2022-12-17T08:46:15.523Z,101480.25
2022-12-17T08:49:07.445Z,101486.34
2022-12-17T08:51:58.069Z,101483.34
2022-12-17T08:54:49.268Z,101481.69
2022-12-17T08:57:40.685Z,101473.34
2022-12-17T09:00:33.863Z,101471.63
2022-12-17T09:03:24.920Z,101471.50
2022-12-17T09:06:14.770Z,101471.00
2022-12-17T09:09:03.554Z,101466.00
2022-12-17T09:11:57.079Z,101474.53
2022-12-17T09:14:46.989Z,101466.63
2022-12-17T09:17:36.090Z,101464.78
2022-12-17T09:20:28.909Z,101467.31
2022-12-17T09:23:32.764Z,101455.59
2022-12-17T09:26:24.232Z,101456.41
2022-12-17T09:29:14.245Z,101447.19
2022-12-17T09:32:03.338Z,101446.50
2022-12-17T09:34:53.154Z,101435.91
2022-12-17T09:37:41.816Z,101434.09
2022-12-17T09:44:07.321Z,101429.34
2022-12-17T09:47:27.188Z,101422.63
2022-12-17T09:50:16.273Z,101422.78
2022-12-17T09:53:04.703Z,101426.31
2022-12-17T09:56:01.771Z,101405.78
2022-12-17T09:58:57.643Z,101401.94
2022-12-17T10:01:54.488Z,101398.75
2022-12-17T10:04:59.572Z,101403.44
2022-12-17T10:07:53.999Z,101405.13
2022-12-17T10:10:51.490Z,101397.56
2022-12-17T10:13:49.630Z,101389.66
2022-12-17T10:17:09.890Z,101384.59
2022-12-17T10:20:02.256Z,101379.06
2022-12-17T10:23:07.416Z,101378.56
2022-12-17T10:25:57.161Z,101374.81
2022-12-17T10:28:44.802Z,101390.66
2022-12-17T10:31:42.589Z,101375.16
2022-12-17T10:34:37.282Z,101377.38
2022-12-17T10:37:27.440Z,101387.09
2022-12-17T10:40:20.237Z,101386.97
2022-12-17T10:43:12.361Z,101387.81
2022-12-17T10:46:01.243Z,101392.84
2022-12-17T10:48:51.536Z,101387.59
2022-12-17T10:51:51.313Z,101377.53
2022-12-17T10:54:49.656Z,101386.94
2022-12-17T10:57:57.406Z,101392.69
2022-12-17T11:01:34.221Z,101374.53
2022-12-17T11:04:22.334Z,101364.75
2022-12-17T11:07:15.542Z,101365.44
2022-12-17T11:10:11.254Z,101357.38
2022-12-17T11:13:22.292Z,101361.72
2022-12-17T11:16:38.947Z,101355.88
2022-12-17T11:19:32.775Z,101352.47
2022-12-17T11:22:36.764Z,101344.41
2022-12-17T11:25:57.870Z,101345.94
2022-12-17T11:28:52.444Z,101346.81
2022-12-17T11:32:09.696Z,101344.91
2022-12-17T11:35:25.341Z,101349.81
2022-12-17T11:38:51.681Z,101341.91
2022-12-17T11:42:10.896Z,101351.69
2022-12-17T11:45:23.250Z,101356.56
2022-12-17T11:48:45.562Z,101351.84
2022-12-17T11:52:04.297Z,101342.59
2022-12-17T11:55:35.779Z,101339.88
2022-12-17T11:58:28.367Z,101339.19
2022-12-17T12:01:51.973Z,101322.75
2022-12-17T12:05:16.419Z,101322.91
2022-12-17T12:08:32.202Z,101312.81
2022-12-17T12:11:51.576Z,101315.16
2022-12-17T12:15:00.341Z,101330.13
2022-12-17T12:18:19.012Z,101321.38
2022-12-17T12:21:34.104Z,101318.03
2022-12-17T12:25:03.695Z,101320.72
2022-12-17T12:28:10.162Z,101310.78
2022-12-17T12:31:20.276Z,101292.13
2022-12-17T12:34:20.351Z,101298.13
2022-12-17T12:37:10.312Z,101301.19
2022-12-17T12:40:28.700Z,101304.69
2022-12-17T12:43:41.479Z,101305.88
2022-12-17T12:46:41.767Z,101311.56
2022-12-17T12:49:46.262Z,101308.19
2022-12-17T12:52:41.040Z,101313.25
2022-12-17T12:55:30.280Z,101317.28
2022-12-17T12:58:46.647Z,101308.88
2022-12-17T13:01:36.475Z,101301.00
2022-12-17T13:04:49.232Z,101305.34
2022-12-17T13:07:33.165Z,101302.81
2022-12-17T13:10:02.728Z,101285.81
2022-12-17T13:12:51.234Z,101286.34
2022-12-17T13:15:33.545Z,101280.84
2022-12-17T13:18:41.287Z,101280.97
2022-12-17T13:21:18.752Z,101276.59
2022-12-17T13:23:46.989Z,101279.66
2022-12-17T13:26:47.237Z,101273.94
2022-12-17T13:29:33.318Z,101276.28
2022-12-17T13:32:34.486Z,101264.00
2022-12-17T13:35:34.566Z,101269.91
2022-12-17T13:38:30.875Z,101268.91
2022-12-17T13:41:18.121Z,101254.25
2022-12-17T13:43:58.577Z,101253.44
2022-12-17T13:46:30.206Z,101247.03
2022-12-17T13:49:05.309Z,101254.75
2022-12-17T13:51:37.808Z,101253.41
2022-12-17T13:54:15.252Z,101263.84
2022-12-17T13:56:44.934Z,101265.03
2022-12-17T13:59:24.723Z,101262.50
2022-12-17T14:01:57.003Z,101262.50
2022-12-17T14:04:32.750Z,101259.13
2022-12-17T14:07:06.309Z,101263.16
2022-12-17T14:09:43.371Z,101258.59
2022-12-17T14:12:25.768Z,101266.00
2022-12-17T14:15:02.783Z,101254.22
2022-12-17T14:17:50.346Z,101260.16
2022-12-17T14:20:26.659Z,101263.00
2022-12-17T14:23:11.109Z,101269.91
2022-12-17T14:25:43.155Z,101272.91
2022-12-17T14:28:34.423Z,101256.06
2022-12-17T14:31:26.479Z,101268.19
2022-12-17T14:34:11.920Z,101272.91
2022-12-17T14:36:44.025Z,101262.13
2022-12-17T14:39:44.418Z,101264.53
2022-12-17T14:42:26.114Z,101264.22
2022-12-17T14:45:08.020Z,101265.19
2022-12-17T14:47:38.300Z,101261.53
2022-12-17T14:50:27.402Z,101257.44
2022-12-17T14:52:59.753Z,101254.94
2022-12-17T14:55:56.824Z,101247.38
2022-12-17T15:01:14.396Z,101242.19
2022-12-17T15:03:51.523Z,101240.00
2022-12-17T15:06:20.669Z,101246.03
2022-12-17T15:08:53.465Z,101227.19
2022-12-17T15:11:24.685Z,101228.91
2022-12-17T15:13:56.888Z,101245.22
2022-12-17T15:16:43.353Z,101233.47
2022-12-17T15:19:13.709Z,101242.34
2022-12-17T15:21:41.762Z,101256.78
2022-12-17T15:24:15.263Z,101251.75
2022-12-17T15:26:49.458Z,101253.13
2022-12-17T15:29:21.774Z,101253.97
2022-12-17T15:31:50.982Z,101249.22
2022-12-17T15:34:20.530Z,101243.72
2022-12-17T15:36:48.749Z,101244.88
2022-12-17T15:39:18.282Z,101246.91
2022-12-17T15:42:06.230Z,101244.19
2022-12-17T15:44:35.433Z,101243.72
2022-12-17T15:47:04.961Z,101236.81
2022-12-17T15:49:33.939Z,101240.00
2022-12-17T15:52:03.449Z,101245.03
2022-12-17T15:54:33.049Z,101236.66
2022-12-17T15:57:01.870Z,101237.50
2022-12-17T15:59:33.975Z,101222.69
2022-12-17T16:02:02.968Z,101238.66
2022-12-17T16:04:32.785Z,101241.03
2022-12-17T16:07:05.458Z,101237.97
2022-12-17T16:09:34.928Z,101238.66
2022-12-17T16:12:03.925Z,101234.97
2022-12-17T16:14:33.402Z,101226.41
2022-12-17T16:17:01.727Z,101232.59
2022-12-17T16:19:30.922Z,101221.50
2022-12-17T16:21:58.788Z,101233.94
2022-12-17T16:24:26.659Z,101231.41
2022-12-17T16:26:59.410Z,101218.13
2022-12-17T16:29:32.305Z,101204.03
2022-12-17T16:32:01.847Z,101221.81
2022-12-17T16:34:30.684Z,101215.78
2022-12-17T16:36:59.899Z,101214.56
2022-12-17T19:41:08.951Z,101215.59
2022-12-17T19:43:38.180Z,101215.97
2022-12-17T19:46:16.746Z,101213.31
2022-12-17T19:48:48.917Z,101205.53
2022-12-17T19:51:21.597Z,101192.84
2022-12-17T19:53:51.382Z,101206.97
2022-12-17T19:56:33.887Z,101204.63
2022-12-17T19:59:18.173Z,101203.25
2022-12-17T20:01:56.158Z,101212.00
2022-12-17T20:04:27.775Z,101212.34
2022-12-17T20:06:57.803Z,101210.34
2022-12-17T20:09:26.747Z,101187.66
2022-12-17T20:11:56.127Z,101164.84
2022-12-17T20:14:28.931Z,101181.13
2022-12-17T20:17:00.159Z,101210.00
2022-12-17T20:19:32.751Z,101229.75
2022-12-17T20:22:04.831Z,101216.28
2022-12-17T20:24:33.396Z,101237.22
2022-12-17T20:27:02.186Z,101240.91
2022-12-17T20:29:32.013Z,101239.91
2022-12-17T20:32:04.940Z,101237.38
2022-12-17T20:34:34.933Z,101213.72
2022-12-17T20:37:04.013Z,101182.50
2022-12-17T20:39:43.577Z,101189.91
2022-12-17T20:42:13.101Z,101193.94
2022-12-17T20:44:48.627Z,101203.53
2022-12-17T20:47:21.207Z,101186.91
2022-12-17T20:49:50.651Z,101209.06
2022-12-17T20:52:20.789Z,101228.38
2022-12-17T20:54:53.485Z,101222.50
2022-12-17T20:57:22.814Z,101228.88
2022-12-17T20:59:52.072Z,101201.34
2022-12-17T21:02:20.204Z,101211.44
2022-12-17T21:04:50.200Z,101220.34
2022-12-17T21:07:21.971Z,101204.06
2022-12-17T21:09:51.713Z,101201.69
2022-12-17T21:12:21.210Z,101190.63
2022-12-17T21:14:50.047Z,101197.50
2022-12-17T21:17:23.313Z,101181.19
2022-12-17T21:19:53.081Z,101173.47
2022-12-17T21:22:21.997Z,101190.78
2022-12-17T21:24:50.041Z,101216.13
2022-12-17T21:27:18.947Z,101226.41
2022-12-17T21:32:34.043Z,101192.09
2022-12-17T21:35:06.216Z,101206.53
2022-12-17T21:37:35.106Z,101222.16
2022-12-17T21:40:04.262Z,101223.03
2022-12-17T21:42:52.593Z,101217.16
2022-12-17T21:45:21.949Z,101218.63
2022-12-17T21:47:52.517Z,101207.19
2022-12-17T21:50:23.964Z,101200.25
2022-12-17T21:52:53.255Z,101209.69
2022-12-17T21:55:24.168Z,101217.75
2022-12-17T21:57:53.795Z,101199.41
2022-12-17T22:00:23.003Z,101198.91
2022-12-17T22:02:52.304Z,101187.56
2022-12-17T22:05:21.457Z,101220.16
2022-12-17T22:07:51.921Z,101201.81
2022-12-17T22:10:37.775Z,101211.63
2022-12-17T22:13:34.614Z,101233.28
2022-12-17T22:16:07.401Z,101256.03
2022-12-17T22:18:40.932Z,101262.41
2022-12-17T22:21:14.527Z,101281.28
2022-12-17T22:23:49.057Z,101302.88
2022-12-17T22:26:19.703Z,101267.22
2022-12-17T22:28:51.426Z,101233.22
2022-12-17T22:31:41.168Z,101246.00
2022-12-17T22:34:50.685Z,101260.47
2022-12-17T22:38:58.337Z,101213.00
2022-12-17T22:42:36.055Z,101200.38
2022-12-17T22:44:41.154Z,101241.75
2022-12-17T22:46:03.131Z,101270.03
2022-12-17T22:48:36.528Z,101253.88
2022-12-17T22:51:14.050Z,101260.97
2022-12-17T22:53:46.996Z,101269.53
2022-12-17T22:56:29.467Z,101283.16
2022-12-17T22:59:22.488Z,101289.56
2022-12-17T23:01:51.635Z,101303.84
2022-12-17T23:04:20.143Z,101293.09
2022-12-17T23:06:49.608Z,101289.72
2022-12-17T23:09:22.343Z,101296.78
2022-12-17T23:11:55.128Z,101282.28
2022-12-17T23:14:23.536Z,101290.72
2022-12-17T23:16:56.567Z,101308.16
2022-12-17T23:19:28.144Z,101320.66
2022-12-17T23:22:00.910Z,101328.03
2022-12-17T23:24:39.042Z,101345.34
2022-12-17T23:27:08.066Z,101331.44
2022-12-17T23:29:38.027Z,101333.47
2022-12-17T23:32:07.363Z,101331.38
2022-12-17T23:34:36.050Z,101333.78
2022-12-17T23:37:05.481Z,101322.28
2022-12-17T23:39:34.103Z,101324.97
2022-12-17T23:42:04.144Z,101317.63
2022-12-17T23:44:33.443Z,101314.75
2022-12-17T23:47:02.557Z,101318.25
2022-12-17T23:49:32.074Z,101331.84
2022-12-17T23:52:00.206Z,101337.06
2022-12-17T23:54:30.876Z,101336.09
2022-12-17T23:57:01.171Z,101346.88
2022-12-17T23:59:31.052Z,101349.72
